Resighini Rancheria, California
Current Conditions -  °F | °C
As of 8:53 PM on Thursday 30 Oct 2014 (Local Time) from KACV Reporting Station
Broken Clouds Broken Clouds  
Wind Chill: 59°   Ceiling: 9000
Heat Index: 59°   Visibility: 8mi
Dew Point: 57°   Wind: 5mph
Humidity: 93%   Direction: 60°ENE
Pressure: 29.82"   Gusts: NA
Location:  41.4038°N, 123.781°W
Report Text: KACV 310353Z AUTO 06004KT 8SM FEW049 BKN090 BKN110 15/14 A2982 RMK AO2 RAB19E36 SLP102 P0000 T01500139
Loading
Personal Weather Stations






























Interactive Weather Map
Tropical Storm Tracking
New forecast layout! Learn more

10-Day Weather Forecast

Advertisements
Track Severe Weather on mobile